To NAV CANADA Home Page Login to a new session Search on AWWS site Feedback and Comments Disclaimer Vers la page française équivalente Tips FAQ What's new on the site To the Forecasts and Observations / NOTAM section To "File a Flight Plan" website Publications and other links Update of the User's profile FIC Telephone Numbers My Weather Data Folder Route Weather Data Regional Weather Data Local Weather Data To the Forecasts and Observations / NOTAM section
Request Generated 10/18/2017 at 03:47:28 UTC . Weather information available at that time is displayed.

METAR/TAF

STEPHENVILLE/NL    

METAR CYJT 180300Z 29010KT 15SM BKN028 OVC080 04/M01 A3003 RMK SC5AC3
SLP172=
METAR CYJT 180200Z 30012G17KT 15SM OVC028 04/M00 A3004 RMK SC8
SLP174=
METAR CYJT 180100Z 30004KT 15SM BKN025 OVC080 05/01 A3001 RMK SC5AC3
SLP166=

TAF CYJT 172340Z 1800/1824 VRB03KT P6SM BKN030 BKN080 TEMPO 1800/1808
BKN020 BKN080
FM180800 VRB03KT P6SM BKN030
BECMG 1808/1810 22012KT
FM181000 22012KT P6SM -SHRA OVC030
BECMG 1812/1814 22020G30KT
FM181500 22020G30KT P6SM -SHRA OVC015
BECMG 1816/1818 27020G30KT
FM182000 28015G25KT P6SM -SHRA BKN030
RMK NXT FCST BY 180600Z=
Your time UTC time
Weather data provided by Environment Canada and NAV CANADA